Time;durP1;ratioP1;P1;durP2;ratioP2;P2;SDS_P1;SDS_P2;PMS_P1;PMS_P2;Temp;Humidity;BMP_temperature;BMP_pressure;BME280_temperature;BME280_humidity;BME280_pressure;Samples;Min_cycle;Max_cycle;Signal;HPM_P1;HPM_P2
2022/03/10 00:02:14;;;;;;;14.50;6.70;;;;;;;0.30;69.55;101920.98;107921;1278;60493;-70
2022/03/10 00:04:40;;;;;;;14.00;7.60;;;;;;;0.26;69.74;101923.61;107795;1280;77382;-70
2022/03/10 00:07:09;;;;;;;14.10;7.10;;;;;;;0.23;69.76;101923.77;107928;1280;71368;-69
2022/03/10 00:09:39;;;;;;;11.20;5.90;;;;;;;0.19;69.85;101922.41;107943;1280;72338;-70
2022/03/10 00:12:06;;;;;;;8.80;5.60;;;;;;;0.17;70.17;101920.77;107875;1280;60850;-69
2022/03/10 00:14:34;;;;;;;8.80;6.30;;;;;;;0.14;70.16;101923.14;107913;1280;61575;-70
2022/03/10 00:17:00;;;;;;;8.70;5.70;;;;;;;0.12;70.15;101925.02;107866;1279;75843;-70
2022/03/10 00:19:27;;;;;;;11.90;7.30;;;;;;;0.09;70.25;101922.55;107866;1281;72077;-70
2022/03/10 00:21:54;;;;;;;11.10;6.90;;;;;;;0.07;70.35;101927.36;107951;1279;60182;-70
2022/03/10 00:24:20;;;;;;;13.10;6.50;;;;;;;0.05;70.58;101929.88;107981;1279;59956;-71
2022/03/10 00:26:57;;;;;;;13.60;8.10;;;;;;;0.04;70.90;101931.50;107956;1280;60624;-70
2022/03/10 00:29:24;;;;;;;11.60;6.60;;;;;;;0.03;71.13;101937.48;107875;1280;74707;-71
2022/03/10 00:31:50;;;;;;;12.10;7.50;;;;;;;0.02;71.22;101937.36;107867;1279;71460;-71
2022/03/10 00:34:17;;;;;;;13.50;7.50;;;;;;;-0.01;71.35;101936.95;107711;1280;73982;-71
2022/03/10 00:36:46;;;;;;;14.50;7.60;;;;;;;-0.03;71.51;101938.77;107630;1281;60120;-71
2022/03/10 00:39:12;;;;;;;13.00;7.40;;;;;;;-0.04;71.61;101941.98;107723;1279;60869;-71
2022/03/10 00:41:43;;;;;;;14.90;6.00;;;;;;;-0.05;71.71;101938.16;107683;1278;75849;-70
2022/03/10 00:44:10;;;;;;;14.20;6.60;;;;;;;-0.04;72.16;101941.95;107877;1278;71935;-69
2022/03/10 00:46:37;;;;;;;12.00;7.50;;;;;;;-0.03;71.62;101944.69;107905;1279;73991;-70
2022/03/10 00:49:04;;;;;;;13.90;6.70;;;;;;;-0.05;71.49;101945.83;107868;1280;60374;-69
2022/03/10 00:51:31;;;;;;;13.60;6.30;;;;;;;-0.07;71.43;101948.55;107665;1280;60218;-70
2022/03/10 00:53:58;;;;;;;13.10;8.00;;;;;;;-0.08;71.57;101957.65;107902;1279;76190;-70
2022/03/10 00:56:25;;;;;;;17.00;7.70;;;;;;;-0.10;71.46;101961.38;107686;1280;71631;-70
2022/03/10 00:58:52;;;;;;;11.20;6.20;;;;;;;-0.13;71.39;101964.47;108004;1279;74180;-70
2022/03/10 01:01:19;;;;;;;10.40;5.90;;;;;;;-0.14;71.39;101961.74;107970;1279;61098;-71
2022/03/10 01:03:57;;;;;;;10.50;7.40;;;;;;;-0.16;71.40;101960.45;108015;1277;60444;-70
2022/03/10 01:06:23;;;;;;;12.20;7.20;;;;;;;-0.19;71.21;101963.53;107830;1280;75811;-71
2022/03/10 01:08:50;;;;;;;11.30;6.10;;;;;;;-0.22;71.22;101959.00;108031;1280;71354;-70
2022/03/10 01:11:16;;;;;;;11.50;5.40;;;;;;;-0.23;71.30;101962.90;108018;1279;74202;-70
2022/03/10 01:13:43;;;;;;;11.20;7.20;;;;;;;-0.24;71.33;101964.02;107973;1279;60154;-70
2022/03/10 01:16:11;;;;;;;10.60;5.30;;;;;;;-0.27;71.08;101958.90;108042;1278;60339;-71
2022/03/10 01:18:38;;;;;;;10.40;6.40;;;;;;;-0.28;71.33;101961.75;108002;1279;75779;-70
2022/03/10 01:21:13;;;;;;;9.70;6.10;;;;;;;-0.30;71.28;101963.05;108034;1279;71352;-70
2022/03/10 01:23:40;;;;;;;10.10;5.90;;;;;;;-0.32;71.24;101963.69;107992;1280;72939;-70
2022/03/10 01:26:07;;;;;;;7.80;5.40;;;;;;;-0.34;71.26;101965.83;108076;1279;59938;-70
2022/03/10 01:28:34;;;;;;;9.70;6.40;;;;;;;-0.36;71.36;101968.55;107998;1279;60656;-71
2022/03/10 01:31:00;;;;;;;14.70;6.50;;;;;;;-0.38;71.62;101970.90;108035;1279;75831;-70
2022/03/10 01:33:27;;;;;;;12.00;7.10;;;;;;;-0.37;71.76;101973.67;107912;1280;72172;-69
2022/03/10 01:35:54;;;;;;;11.20;6.70;;;;;;;-0.36;71.85;101977.40;107919;1280;72903;-70
2022/03/10 01:38:21;;;;;;;14.30;8.00;;;;;;;-0.36;71.75;101976.88;107728;1279;60086;-70
2022/03/10 01:40:48;;;;;;;11.10;6.00;;;;;;;-0.35;71.69;101978.06;108015;1279;60672;-70
2022/03/10 01:43:14;;;;;;;16.80;8.30;;;;;;;-0.36;71.50;101978.45;108012;1280;76831;-70
2022/03/10 01:45:41;;;;;;;10.70;6.80;;;;;;;-0.37;71.41;101980.09;108015;1279;72379;-70
2022/03/10 01:48:10;;;;;;;10.00;5.70;;;;;;;-0.40;71.36;101979.50;107988;1279;72755;-70
2022/03/10 01:50:37;;;;;;;13.50;7.90;;;;;;;-0.42;71.42;101979.05;107966;1279;59927;-70
2022/03/10 01:53:04;;;;;;;14.80;7.50;;;;;;;-0.44;71.20;101972.91;108028;1279;59943;-70
2022/03/10 01:55:38;;;;;;;11.60;6.40;;;;;;;-0.47;71.12;101973.04;108103;1279;76724;-70
2022/03/10 01:58:05;;;;;;;11.90;7.10;;;;;;;-0.50;71.13;101970.42;108054;1280;71507;-70
2022/03/10 02:00:32;;;;;;;14.90;7.80;;;;;;;-0.55;71.29;101967.15;108224;1277;75121;-70
2022/03/10 02:02:59;;;;;;;7.10;5.00;;;;;;;-0.59;71.52;101959.55;108025;1279;60252;-69
2022/03/10 02:05:32;;;;;;;14.90;6.90;;;;;;;-0.61;71.76;101957.21;108240;1277;60392;-70
2022/03/10 02:10:44;;;;;;;11.10;6.50;;;;;;;-0.65;72.11;101953.73;108200;1277;69892;-70
2022/03/10 02:13:11;;;;;;;9.80;6.70;;;;;;;-0.66;72.22;101955.36;108186;1277;73059;-70
2022/03/10 02:18:23;;;;;;;11.10;6.70;;;;;;;-0.71;72.19;101954.73;108135;1277;60381;-71
2022/03/10 02:20:55;;;;;;;13.00;7.00;;;;;;;-0.75;72.29;101955.63;107965;1279;75785;-71
2022/03/10 02:23:32;;;;;;;15.20;8.70;;;;;;;-0.79;72.33;101952.48;108212;1277;71035;-71
2022/03/10 02:25:59;;;;;;;17.10;8.10;;;;;;;-0.83;72.60;101951.95;107924;1279;73959;-71
2022/03/10 02:28:27;;;;;;;13.10;7.70;;;;;;;-0.86;72.65;101949.67;108038;1278;60102;-71
2022/03/10 02:30:54;;;;;;;16.30;8.90;;;;;;;-0.90;72.71;101946.36;108184;1277;60604;-71
2022/03/10 02:33:21;;;;;;;12.00;8.00;;;;;;;-0.94;72.95;101944.13;108046;1279;75946;-71
2022/03/10 02:35:50;;;;;;;12.50;7.30;;;;;;;-0.96;72.98;101948.39;108201;1277;71460;-71
2022/03/10 02:38:19;;;;;;;17.70;7.30;;;;;;;-1.00;73.15;101946.15;108064;1279;73082;-72
2022/03/10 02:40:49;;;;;;;13.50;7.00;;;;;;;-1.04;73.13;101941.11;107949;1280;60653;-71
2022/03/10 02:43:17;;;;;;;12.00;7.40;;;;;;;-1.08;73.26;101940.26;108028;1278;60791;-71
2022/03/10 02:45:45;;;;;;;12.40;6.70;;;;;;;-1.11;73.65;101939.54;108178;1277;77112;-71
2022/03/10 02:48:16;;;;;;;16.90;7.30;;;;;;;-1.14;73.80;101939.98;107939;1277;71341;-69
2022/03/10 02:50:43;;;;;;;15.40;7.30;;;;;;;-1.16;74.20;101942.70;108099;1277;72789;-69
2022/03/10 02:53:15;;;;;;;16.60;8.20;;;;;;;-1.18;74.49;101945.55;108093;1278;60352;-69
2022/03/10 02:55:44;;;;;;;12.30;7.70;;;;;;;-1.20;74.51;101945.83;108119;1277;59971;-69
2022/03/10 02:58:33;;;;;;;13.80;6.10;;;;;;;-1.22;74.54;101947.65;108105;1278;75679;-69
2022/03/10 03:01:00;;;;;;;10.10;6.40;;;;;;;-1.23;74.72;101949.08;107970;1279;72482;-71
2022/03/10 03:03:40;;;;;;;14.20;8.30;;;;;;;-1.25;74.76;101950.70;108079;1277;73934;-69
2022/03/10 03:06:39;;;;;;;21.60;10.30;;;;;;;-1.25;74.98;101946.05;108067;1277;63504;-69
2022/03/10 03:09:08;;;;;;;20.60;9.90;;;;;;;-1.24;75.00;101944.96;108100;1277;59875;-71
2022/03/10 03:11:35;;;;;;;18.40;9.40;;;;;;;-1.25;74.96;101946.70;108116;1279;76735;-69
2022/03/10 03:14:15;;;;;;;;;;;;;;;;;;;;;
2022/03/10 03:16:59;;;;;;;17.60;8.90;;;;;;;-1.27;74.80;101955.80;108085;1279;72961;-70
2022/03/10 03:19:26;;;;;;;18.40;9.40;;;;;;;-1.27;75.12;101954.10;107891;1280;61301;-71
2022/03/10 03:21:55;;;;;;;22.30;10.20;;;;;;;-1.27;74.89;101956.20;107987;1279;60210;-70
2022/03/10 03:24:24;;;;;;;17.00;9.10;;;;;;;-1.27;75.24;101954.98;107969;1280;74670;-71
2022/03/10 03:26:51;;;;;;;24.50;9.40;;;;;;;-1.26;75.19;101952.49;108122;1279;71404;-69
2022/03/10 03:29:49;;;;;;;15.40;9.40;;;;;;;-1.26;75.23;101954.04;108042;1278;73445;-71
2022/03/10 03:32:14;;;;;;;16.40;9.60;;;;;;;-1.25;75.27;101954.89;108051;1279;62943;-70
2022/03/10 03:34:41;;;;;;;23.20;10.10;;;;;;;-1.26;75.39;101953.86;108098;1278;60595;-70
2022/03/10 03:37:08;;;;;;;19.80;10.10;;;;;;;-1.26;75.05;101955.59;108100;1279;76725;-70
2022/03/10 03:39:35;;;;;;;19.20;9.50;;;;;;;-1.26;75.04;101957.67;108077;1277;71275;-72
2022/03/10 03:42:01;;;;;;;19.70;9.40;;;;;;;-1.25;75.16;101959.41;107802;1280;73134;-71
2022/03/10 03:44:29;;;;;;;23.90;9.00;;;;;;;-1.24;75.34;101959.70;108081;1277;61603;-71
2022/03/10 03:46:56;;;;;;;17.20;8.30;;;;;;;-1.21;75.36;101961.66;107833;1278;60961;-71
2022/03/10 03:49:23;;;;;;;19.30;9.30;;;;;;;-1.20;75.25;101963.16;108080;1265;76885;-70
2022/03/10 03:51:49;;;;;;;16.90;8.80;;;;;;;-1.19;75.00;101964.71;108192;1277;73284;-71
2022/03/10 03:54:16;;;;;;;19.00;8.60;;;;;;;-1.20;75.03;101968.38;108184;1277;71889;-72
2022/03/10 03:56:42;;;;;;;18.60;9.80;;;;;;;-1.20;75.02;101969.45;108132;1277;59920;-70
2022/03/10 03:59:10;;;;;;;15.00;8.80;;;;;;;-1.21;74.90;101972.45;108209;1277;60704;-70
2022/03/10 04:01:37;;;;;;;16.70;8.50;;;;;;;-1.22;75.23;101971.95;108186;1270;75661;-70
2022/03/10 04:04:04;;;;;;;23.00;8.70;;;;;;;-1.23;75.12;101969.55;108162;1277;71775;-72
2022/03/10 04:06:30;;;;;;;15.40;9.00;;;;;;;-1.24;74.93;101969.74;108266;1277;72914;-70
2022/03/10 04:08:59;;;;;;;18.60;9.00;;;;;;;-1.26;74.64;101967.58;107994;1277;62081;-70
2022/03/10 04:11:29;;;;;;;18.40;8.90;;;;;;;-1.28;74.65;101966.65;108281;1277;60432;-70
2022/03/10 04:13:55;;;;;;;21.90;10.30;;;;;;;-1.30;74.75;101968.30;108170;1277;75809;-71
2022/03/10 04:16:31;;;;;;;16.90;8.90;;;;;;;-1.34;74.73;101968.27;108117;1277;71350;-71
2022/03/10 04:19:18;;;;;;;15.30;8.10;;;;;;;-1.37;74.95;101964.09;108277;1276;74318;-70
2022/03/10 04:21:45;;;;;;;15.50;8.30;;;;;;;-1.41;75.32;101971.55;107956;1277;61549;-71
2022/03/10 04:24:12;;;;;;;14.50;8.20;;;;;;;-1.45;75.44;101973.44;108304;1276;60301;-71
2022/03/10 04:27:00;;;;;;;18.00;8.60;;;;;;;-1.49;75.55;101979.89;108154;1277;77991;-71
2022/03/10 04:29:26;;;;;;;20.50;9.20;;;;;;;-1.53;75.53;101981.59;108157;1277;72770;-71
2022/03/10 04:31:53;;;;;;;19.10;8.60;;;;;;;-1.56;75.50;101980.70;108201;1277;73122;-71
2022/03/10 04:34:20;;;;;;;14.80;7.70;;;;;;;-1.59;75.56;101982.38;108089;1277;62245;-72
2022/03/10 04:36:47;;;;;;;17.30;9.70;;;;;;;-1.61;75.70;101985.23;108272;1276;61638;-71
2022/03/10 04:39:15;;;;;;;20.00;8.50;;;;;;;-1.62;75.64;101988.59;108209;1277;76956;-70
2022/03/10 04:41:42;;;;;;;16.60;9.00;;;;;;;-1.65;75.67;101988.52;108083;1277;70647;-71
2022/03/10 04:44:10;;;;;;;16.20;9.40;;;;;;;-1.67;75.71;101989.13;108276;1277;73991;-71
2022/03/10 04:46:37;;;;;;;18.60;9.50;;;;;;;-1.70;75.75;101990.63;108135;1277;62389;-72
2022/03/10 04:49:04;;;;;;;19.30;10.60;;;;;;;-1.71;75.88;101992.77;108137;1277;61804;-71
2022/03/10 04:51:30;;;;;;;17.00;9.80;;;;;;;-1.74;76.06;101988.73;108125;1277;77093;-72
2022/03/10 04:53:57;;;;;;;17.90;8.80;;;;;;;-1.76;76.17;101993.52;108279;1277;70418;-72
2022/03/10 04:56:27;;;;;;;21.40;9.50;;;;;;;-1.79;76.26;101991.87;108035;1278;75389;-72
2022/03/10 04:58:53;;;;;;;19.90;9.30;;;;;;;-1.81;76.49;101999.27;108235;1277;61149;-71
2022/03/10 05:01:20;;;;;;;15.80;9.60;;;;;;;-1.84;76.37;102004.40;108289;1277;60605;-72
2022/03/10 05:03:47;;;;;;;23.80;9.30;;;;;;;-1.88;76.51;102007.84;108101;1277;74735;-71
2022/03/10 05:06:13;;;;;;;18.70;9.70;;;;;;;-1.91;76.48;102008.14;108278;1277;71411;-72
2022/03/10 05:08:40;;;;;;;18.50;10.50;;;;;;;-1.93;76.59;102009.29;108254;1275;73222;-71
2022/03/10 05:11:07;;;;;;;15.80;8.90;;;;;;;-1.96;76.53;102008.70;108221;1277;59932;-71
2022/03/10 05:13:34;;;;;;;18.60;9.80;;;;;;;-1.97;76.71;102006.83;108041;1277;60888;-72
2022/03/10 05:16:01;;;;;;;15.50;9.10;;;;;;;-1.98;76.80;102006.19;108246;1277;75670;-71
2022/03/10 05:18:28;;;;;;;17.70;10.00;;;;;;;-1.98;76.90;102009.84;107992;1277;71385;-71
2022/03/10 05:21:55;;;;;;;19.10;9.40;;;;;;;-1.99;76.89;102009.86;108232;1277;74037;-73
2022/03/10 05:24:37;;;;;;;18.80;9.90;;;;;;;-2.01;76.96;102009.92;108113;1277;60376;-73
2022/03/10 05:27:03;;;;;;;17.00;9.40;;;;;;;-2.01;77.01;102011.35;108274;1277;61510;-71
2022/03/10 05:29:30;;;;;;;17.90;10.00;;;;;;;-2.02;77.13;102015.72;108141;1277;75744;-72
2022/03/10 05:31:56;;;;;;;15.90;9.50;;;;;;;-2.03;77.22;102013.32;108254;1277;71389;-72
2022/03/10 05:34:23;;;;;;;18.60;9.80;;;;;;;-2.05;77.20;102012.00;108228;1277;71514;-71
2022/03/10 05:36:53;;;;;;;23.20;9.90;;;;;;;-2.07;77.23;102016.90;108268;1277;61513;-70
2022/03/10 05:39:20;;;;;;;17.60;9.20;;;;;;;-2.09;77.30;102020.49;108203;1277;60812;-73
2022/03/10 05:41:46;;;;;;;16.90;9.60;;;;;;;-2.10;77.48;102025.70;108140;1277;75692;-73
2022/03/10 05:44:15;;;;;;;17.70;9.70;;;;;;;-2.11;77.50;102027.83;108210;1277;71422;-73
2022/03/10 05:46:42;;;;;;;18.20;9.70;;;;;;;-2.12;77.41;102029.93;108272;1277;72896;-71
2022/03/10 05:49:09;;;;;;;21.20;9.70;;;;;;;-2.12;77.28;102028.77;108265;1277;61410;-73
2022/03/10 05:51:36;;;;;;;20.20;10.20;;;;;;;-2.14;77.51;102029.84;108256;1277;59972;-71
2022/03/10 05:54:03;;;;;;;20.00;9.70;;;;;;;-2.14;77.56;102030.53;108226;1275;75680;-71
2022/03/10 05:56:30;;;;;;;16.30;9.10;;;;;;;-2.12;77.79;102032.34;108248;1276;70323;-71
2022/03/10 05:58:56;;;;;;;26.30;10.00;;;;;;;-2.08;77.94;102034.30;108109;1277;72133;-70
2022/03/10 06:01:23;;;;;;;22.40;9.20;;;;;;;-2.03;77.89;102038.45;108203;1277;61258;-71
2022/03/10 06:03:50;;;;;;;17.20;9.00;;;;;;;-1.99;77.90;102048.34;108257;1277;59836;-72
2022/03/10 06:06:16;;;;;;;16.00;9.00;;;;;;;-1.94;77.79;102050.76;108262;1277;76745;-71
2022/03/10 06:08:43;;;;;;;18.90;9.40;;;;;;;-1.90;77.67;102055.94;108262;1275;72424;-70
2022/03/10 06:11:10;;;;;;;17.80;8.80;;;;;;;-1.84;77.58;102057.60;108115;1277;72928;-71
2022/03/10 06:13:36;;;;;;;15.40;8.90;;;;;;;-1.80;77.43;102055.90;108112;1277;61795;-73
2022/03/10 06:16:06;;;;;;;18.40;8.80;;;;;;;-1.76;77.18;102059.39;108280;1276;59371;-73
2022/03/10 06:18:32;;;;;;;16.50;8.90;;;;;;;-1.73;77.25;102061.16;108232;1277;76528;-67
2022/03/10 06:20:59;;;;;;;16.20;9.10;;;;;;;-1.68;77.27;102059.05;108032;1277;71264;-65
2022/03/10 06:23:26;;;;;;;21.40;9.90;;;;;;;-1.59;77.36;102061.14;108231;1277;72567;-67
2022/03/10 06:25:53;;;;;;;21.00;8.70;;;;;;;-1.50;77.24;102056.95;108221;1276;61468;-65
2022/03/10 06:28:19;;;;;;;15.10;8.40;;;;;;;-1.41;77.10;102056.20;108063;1279;61628;-66
2022/03/10 06:30:46;;;;;;;15.00;9.60;;;;;;;-1.32;76.86;102059.83;108118;1277;76069;-66
2022/03/10 06:33:13;;;;;;;22.30;9.10;;;;;;;-1.23;76.66;102059.45;108054;1277;71673;-66
2022/03/10 06:35:40;;;;;;;17.20;8.90;;;;;;;-1.13;76.51;102060.62;108116;1277;72922;-66
2022/03/10 06:38:06;;;;;;;14.20;8.00;;;;;;;-1.06;76.11;102060.45;108102;1277;60669;-65
2022/03/10 06:40:33;;;;;;;20.90;9.00;;;;;;;-0.99;75.93;102059.80;108257;1277;60039;-66
2022/03/10 06:43:00;;;;;;;17.90;8.40;;;;;;;-0.92;75.81;102060.57;108230;1277;60572;-66
2022/03/10 06:45:26;;;;;;;15.40;7.90;;;;;;;-0.84;75.87;102058.63;108208;1277;71449;-66
2022/03/10 06:47:53;;;;;;;18.30;8.70;;;;;;;-0.74;75.62;102060.47;108244;1277;72682;-66
2022/03/10 06:50:19;;;;;;;16.30;8.00;;;;;;;-0.66;75.39;102064.80;108241;1275;60057;-66
2022/03/10 06:52:46;;;;;;;17.80;9.00;;;;;;;-0.58;75.22;102071.93;108108;1278;61871;-66
2022/03/10 06:55:16;;;;;;;12.10;7.30;;;;;;;-0.51;75.00;102076.64;108219;1277;75844;-66
2022/03/10 06:57:42;;;;;;;16.00;8.40;;;;;;;-0.43;74.97;102079.41;108133;1278;71530;-66
2022/03/10 07:00:10;;;;;;;13.00;8.00;;;;;;;-0.34;74.92;102085.10;108200;1277;73144;-69
2022/03/10 07:02:36;;;;;;;13.60;7.50;;;;;;;-0.26;74.93;102084.02;108279;1277;59931;-65
2022/03/10 07:05:04;;;;;;;9.90;6.50;;;;;;;-0.15;74.97;102082.14;108230;1277;59915;-66
2022/03/10 07:07:36;;;;;;;12.40;6.30;;;;;;;-0.05;74.79;102084.41;108097;1278;76781;-66
2022/03/10 07:10:08;;;;;;;13.30;6.90;;;;;;;0.08;74.65;102080.02;108102;1277;71380;-67
2022/03/10 07:12:38;;;;;;;10.80;6.40;;;;;;;0.18;74.68;102085.29;108280;1276;73736;-67
2022/03/10 07:15:07;;;;;;;9.80;6.30;;;;;;;0.29;74.54;102088.59;108069;1277;60052;-66
2022/03/10 07:17:34;;;;;;;11.50;6.10;;;;;;;0.40;74.40;102084.02;108126;1279;60738;-67
2022/03/10 07:20:00;;;;;;;11.50;6.70;;;;;;;0.51;74.42;102086.98;108233;1277;74641;-66
2022/03/10 07:22:27;;;;;;;8.40;4.50;;;;;;;0.62;74.33;102083.67;108240;1277;71472;-66
2022/03/10 07:24:54;;;;;;;12.30;6.40;;;;;;;0.73;74.41;102081.55;108172;1277;72843;-66
2022/03/10 07:27:20;;;;;;;7.90;4.80;;;;;;;0.84;74.19;102083.42;108150;1277;59855;-66
2022/03/10 07:29:50;;;;;;;11.00;6.00;;;;;;;0.96;73.94;102086.48;108286;1277;61679;-67
2022/03/10 07:32:18;;;;;;;10.80;6.60;;;;;;;1.08;74.09;102089.68;107707;1280;76963;-66
2022/03/10 07:34:47;;;;;;;14.70;6.10;;;;;;;1.20;73.88;102094.27;108239;1277;71361;-67
2022/03/10 07:37:15;;;;;;;10.40;6.10;;;;;;;1.35;73.90;102094.91;108288;1277;73005;-67
2022/03/10 07:39:41;;;;;;;10.70;6.60;;;;;;;1.48;73.64;102093.67;107775;1277;443259;-67
2022/03/10 07:42:08;;;;;;;12.70;6.80;;;;;;;1.62;73.38;102092.09;108205;1278;60482;-67
2022/03/10 07:44:36;;;;;;;11.90;7.50;;;;;;;1.77;73.00;102093.91;108312;1276;76306;-66
2022/03/10 07:47:02;;;;;;;12.30;6.40;;;;;;;1.91;72.59;102096.44;108259;1275;72430;-66
2022/03/10 07:49:29;;;;;;;12.00;6.30;;;;;;;2.05;72.19;102096.86;108083;1277;74093;-66
2022/03/10 07:51:56;;;;;;;11.60;6.80;;;;;;;2.21;72.11;102093.75;108196;1277;60142;-66
2022/03/10 07:54:23;;;;;;;11.10;6.50;;;;;;;2.36;72.01;102096.22;108290;1277;60494;-67
2022/03/10 07:56:51;;;;;;;10.90;6.20;;;;;;;2.50;71.75;102097.48;108163;1278;75536;-67
2022/03/10 07:59:23;;;;;;;10.10;6.20;;;;;;;2.66;71.41;102092.59;108103;1277;71323;-67
2022/03/10 08:01:55;;;;;;;9.70;5.60;;;;;;;2.82;71.50;102093.54;107876;1278;73097;-67
2022/03/10 08:04:23;;;;;;;11.90;6.70;;;;;;;2.99;71.01;102092.39;108071;1277;59987;-66
2022/03/10 08:06:51;;;;;;;9.70;6.00;;;;;;;3.13;70.41;102093.80;107872;1276;60934;-66
2022/03/10 08:09:26;;;;;;;12.50;6.60;;;;;;;3.29;70.05;102093.91;107991;1277;77999;-67
2022/03/10 08:11:56;;;;;;;9.90;5.70;;;;;;;3.46;69.94;102098.30;107911;1277;69907;-68
2022/03/10 08:14:30;;;;;;;9.90;5.60;;;;;;;3.61;69.31;102101.39;108139;1277;71646;-68
2022/03/10 08:17:02;;;;;;;10.70;5.60;;;;;;;3.76;68.66;102099.77;107948;1277;60273;-67
2022/03/10 08:19:31;;;;;;;19.10;6.60;;;;;;;3.90;68.14;102105.75;107857;1279;60299;-68
2022/03/10 08:21:58;;;;;;;13.00;6.50;;;;;;;4.04;68.09;102103.08;107871;1277;75011;-67
2022/03/10 08:24:28;;;;;;;13.70;5.90;;;;;;;4.19;67.63;102103.39;107790;1279;72228;-67
2022/03/10 08:26:54;;;;;;;12.00;5.60;;;;;;;4.33;67.57;102102.27;107839;1277;73243;-68
2022/03/10 08:29:23;;;;;;;9.80;6.40;;;;;;;4.47;67.12;102100.64;108099;1277;61368;-68
2022/03/10 08:31:52;;;;;;;13.00;6.80;;;;;;;4.61;66.70;102102.35;107802;1277;59966;-68
2022/03/10 08:34:20;;;;;;;12.70;7.00;;;;;;;4.75;66.30;102101.45;107897;1277;77255;-66
2022/03/10 08:36:47;;;;;;;12.70;6.20;;;;;;;4.88;66.38;102098.09;107745;1280;71866;-66
2022/03/10 08:39:15;;;;;;;9.70;6.30;;;;;;;5.04;65.71;102097.94;107995;1277;71085;-67
2022/03/10 08:41:43;;;;;;;12.70;6.50;;;;;;;5.18;65.28;102094.49;108235;1277;59955;-67
2022/03/10 08:44:13;;;;;;;13.20;6.80;;;;;;;5.35;65.56;102088.95;108085;1277;60815;-67
2022/03/10 08:46:39;;;;;;;12.80;6.40;;;;;;;5.51;64.51;102086.77;108088;1277;77122;-66
2022/03/10 08:49:07;;;;;;;11.30;6.80;;;;;;;5.66;63.97;102081.13;107827;1279;71979;-67
2022/03/10 08:51:36;;;;;;;8.70;5.70;;;;;;;5.81;63.44;102080.48;108042;1277;74149;-67
2022/03/10 08:54:08;;;;;;;11.70;5.40;;;;;;;5.99;63.67;102077.13;107691;1280;60319;-67
2022/03/10 08:56:35;;;;;;;9.60;5.80;;;;;;;6.18;63.71;102074.51;108193;1277;61604;-67
2022/03/10 08:59:03;;;;;;;10.60;6.00;;;;;;;6.36;62.58;102072.61;107929;1280;75779;-67
2022/03/10 09:01:33;;;;;;;10.10;5.50;;;;;;;6.52;62.00;102071.77;108110;1277;71561;-68
2022/03/10 09:04:07;;;;;;;10.80;5.70;;;;;;;6.68;61.06;102069.36;107861;1280;73095;-68
2022/03/10 09:06:34;;;;;;;8.80;5.60;;;;;;;6.82;60.21;102070.09;108229;1277;59885;-66
2022/03/10 09:09:00;;;;;;;10.70;6.10;;;;;;;6.94;59.54;102066.70;108307;1277;59930;-66
2022/03/10 09:11:27;;;;;;;10.70;5.70;;;;;;;7.09;59.66;102063.30;108316;1277;75757;-66
2022/03/10 09:13:53;;;;;;;6.10;3.90;;;;;;;7.26;58.99;102065.30;108332;1277;59924;-68
2022/03/10 09:16:21;;;;;;;9.60;5.30;;;;;;;7.39;57.86;102063.38;108303;1277;73060;-67
2022/03/10 09:18:52;;;;;;;8.60;5.30;;;;;;;7.55;57.59;102065.34;108265;1277;59995;-67
2022/03/10 09:21:19;;;;;;;14.40;5.50;;;;;;;7.67;56.41;102064.88;108180;1278;60354;-67
2022/03/10 09:23:46;;;;;;;9.50;4.90;;;;;;;7.78;56.95;102066.48;108004;1277;76541;-67
2022/03/10 09:26:15;;;;;;;9.20;5.60;;;;;;;7.91;56.84;102066.67;107922;1280;70131;-66
2022/03/10 09:28:43;;;;;;;9.80;5.60;;;;;;;8.06;56.69;102064.42;108005;1277;72034;-67
2022/03/10 09:31:16;;;;;;;11.30;5.60;;;;;;;8.20;55.69;102057.98;108105;1277;59867;-66
2022/03/10 09:33:44;;;;;;;12.00;5.80;;;;;;;8.32;54.98;102057.52;108095;1277;60688;-68
2022/03/10 09:36:13;;;;;;;9.70;6.00;;;;;;;8.43;54.28;102056.86;108242;1277;76673;-69
2022/03/10 09:38:42;;;;;;;9.00;6.00;;;;;;;8.54;53.43;102054.32;107956;1277;70105;-67
2022/03/10 09:41:08;;;;;;;11.50;5.20;;;;;;;8.64;53.57;102059.64;108145;1277;73982;-68
2022/03/10 09:43:45;;;;;;;9.50;5.20;;;;;;;8.76;53.12;102052.85;108238;1277;60581;-67
2022/03/10 09:46:13;;;;;;;9.40;5.40;;;;;;;8.89;52.82;102051.17;107839;1277;60858;-70
2022/03/10 09:48:48;;;;;;;11.80;4.80;;;;;;;9.02;52.64;102050.33;107925;1277;77387;-67
2022/03/10 09:51:16;;;;;;;10.80;5.80;;;;;;;9.14;51.83;102048.52;107949;1280;73497;-67
2022/03/10 09:53:47;;;;;;;7.80;4.10;;;;;;;9.27;51.74;102044.59;108026;1277;71552;-67
2022/03/10 09:56:20;;;;;;;10.20;6.10;;;;;;;9.37;50.89;102045.45;108270;1277;59887;-68
2022/03/10 09:58:47;;;;;;;12.30;6.70;;;;;;;9.48;50.54;102048.58;108065;1277;60891;-66
2022/03/10 10:01:14;;;;;;;11.00;5.10;;;;;;;9.57;49.84;102046.23;108116;1277;59838;-68
2022/03/10 10:03:41;;;;;;;10.00;5.70;;;;;;;9.68;50.03;102045.09;108046;1277;72701;-66
2022/03/10 10:06:07;;;;;;;9.00;5.60;;;;;;;9.80;49.48;102044.15;108302;1277;74102;-68
2022/03/10 10:08:34;;;;;;;12.40;5.10;;;;;;;9.92;48.45;102041.19;108005;1279;60458;-66
2022/03/10 10:11:05;;;;;;;9.80;6.30;;;;;;;9.97;46.47;102040.54;108339;1276;60676;-68
2022/03/10 10:13:39;;;;;;;11.40;5.60;;;;;;;10.03;46.84;102038.77;108234;1277;75984;-68
2022/03/10 10:16:07;;;;;;;;;;;;;;;10.14;47.22;102040.45;108100;1279;71226;-66
2022/03/10 10:18:36;;;;;;;6.60;3.80;;;;;;;10.18;45.82;102043.07;108269;1277;72949;-68
2022/03/10 10:21:14;;;;;;;9.10;5.20;;;;;;;10.20;46.04;102043.59;108149;1280;60738;-67
2022/03/10 10:23:41;;;;;;;9.10;5.60;;;;;;;10.28;47.58;102045.91;108280;1277;61644;-68
2022/03/10 10:26:10;;;;;;;9.00;4.50;;;;;;;10.39;47.24;102045.23;108085;1280;60355;-67
2022/03/10 10:28:45;;;;;;;10.80;5.30;;;;;;;10.49;46.75;102043.54;108274;1276;72829;-67
2022/03/10 10:31:14;;;;;;;13.40;5.40;;;;;;;10.60;47.15;102041.26;108243;1277;72075;-68
2022/03/10 10:33:43;;;;;;;9.50;5.10;;;;;;;10.71;47.22;102036.87;108180;1277;61384;-66
2022/03/10 10:36:12;;;;;;;14.10;6.40;;;;;;;10.79;46.58;102034.67;107999;1277;60630;-66
2022/03/10 10:38:40;;;;;;;8.90;4.90;;;;;;;10.90;46.47;102034.38;108276;1277;74672;-67
2022/03/10 10:41:24;;;;;;;9.80;5.50;;;;;;;10.99;46.37;102037.58;108327;1277;70161;-66
2022/03/10 10:43:55;;;;;;;11.90;5.10;;;;;;;11.08;46.54;102035.36;108308;1277;72831;-66
2022/03/10 10:46:30;;;;;;;9.80;5.50;;;;;;;11.15;45.50;102033.44;108320;1277;61672;-68
2022/03/10 10:48:58;;;;;;;16.30;7.10;;;;;;;11.19;45.36;102033.63;108040;1277;61779;-67
2022/03/10 10:51:32;;;;;;;12.40;6.00;;;;;;;11.30;45.96;102030.39;108283;1277;76964;-68
2022/03/10 10:54:00;;;;;;;11.70;5.10;;;;;;;11.47;45.45;102035.36;108114;1277;71400;-66
2022/03/10 10:56:30;;;;;;;12.20;5.50;;;;;;;11.54;45.28;102038.35;108265;1277;70711;-67
2022/03/10 10:58:57;;;;;;;11.10;5.70;;;;;;;11.63;45.13;102035.87;108138;1277;60658;-68
2022/03/10 11:01:32;;;;;;;9.70;5.00;;;;;;;11.74;45.37;102031.10;108300;1277;61328;-66
2022/03/10 11:04:00;;;;;;;11.20;6.30;;;;;;;11.89;45.01;102030.61;108305;1277;76800;-69
2022/03/10 11:06:27;;;;;;;12.40;5.40;;;;;;;11.99;44.20;102025.88;108177;1279;72657;-66
2022/03/10 11:08:56;;;;;;;10.00;5.30;;;;;;;12.04;43.89;102024.99;108068;1277;71601;-68
2022/03/10 11:11:26;;;;;;;12.40;6.10;;;;;;;12.12;43.79;102020.70;108116;1277;61403;-68
2022/03/10 11:13:53;;;;;;;10.90;6.30;;;;;;;12.20;43.35;102020.09;108272;1277;60540;-68
2022/03/10 11:16:20;;;;;;;12.30;6.30;;;;;;;12.28;43.56;102019.05;108260;1277;75742;-67
2022/03/10 11:18:49;;;;;;;11.40;5.80;;;;;;;12.41;43.54;102014.10;108332;1277;71343;-66
2022/03/10 11:21:38;;;;;;;14.20;6.80;;;;;;;12.50;42.33;102018.02;108251;1277;72969;-68
2022/03/10 11:24:50;;;;;;;10.00;5.60;;;;;;;12.56;42.21;102015.34;108263;1277;60735;-68
2022/03/10 11:27:31;;;;;;;12.50;5.90;;;;;;;12.66;42.52;102012.75;108165;1277;59882;-67
2022/03/10 11:30:00;;;;;;;11.70;5.70;;;;;;;12.76;42.22;102009.41;108254;1277;75907;-66